sensor_id;sensor_type;location;lat;lon;timestamp;P1;durP1;ratioP1;P2;durP2;ratioP2
64543;SDS011;50936;51.660;5.616;2023-05-16T00:00:38;6.25;;;1.90;;
64543;SDS011;50936;51.660;5.616;2023-05-16T00:03:05;9.48;;;2.33;;
64543;SDS011;50936;51.660;5.616;2023-05-16T00:05:33;7.85;;;2.08;;
64543;SDS011;50936;51.660;5.616;2023-05-16T00:07:59;10.55;;;2.17;;
64543;SDS011;50936;51.660;5.616;2023-05-16T00:10:26;10.27;;;2.25;;
64543;SDS011;50936;51.660;5.616;2023-05-16T00:12:53;10.80;;;2.13;;
64543;SDS011;50936;51.660;5.616;2023-05-16T00:15:21;13.23;;;2.25;;
64543;SDS011;50936;51.660;5.616;2023-05-16T00:17:50;9.80;;;2.60;;
64543;SDS011;50936;51.660;5.616;2023-05-16T00:20:18;12.63;;;2.60;;
64543;SDS011;50936;51.660;5.616;2023-05-16T00:22:49;11.50;;;2.25;;
64543;SDS011;50936;51.660;5.616;2023-05-16T00:25:16;11.55;;;2.65;;
64543;SDS011;50936;51.660;5.616;2023-05-16T00:27:44;15.02;;;2.70;;
64543;SDS011;50936;51.660;5.616;2023-05-16T00:30:11;9.50;;;2.58;;
64543;SDS011;50936;51.660;5.616;2023-05-16T00:32:38;9.93;;;2.28;;
64543;SDS011;50936;51.660;5.616;2023-05-16T00:35:06;11.82;;;2.58;;
64543;SDS011;50936;51.660;5.616;2023-05-16T00:37:36;12.70;;;2.75;;
64543;SDS011;50936;51.660;5.616;2023-05-16T00:40:04;11.15;;;2.60;;
64543;SDS011;50936;51.660;5.616;2023-05-16T00:42:31;11.30;;;2.63;;
64543;SDS011;50936;51.660;5.616;2023-05-16T00:44:59;11.60;;;2.80;;
64543;SDS011;50936;51.660;5.616;2023-05-16T00:47:27;9.48;;;2.58;;
64543;SDS011;50936;51.660;5.616;2023-05-16T00:49:54;9.00;;;2.33;;
64543;SDS011;50936;51.660;5.616;2023-05-16T00:52:22;9.88;;;2.95;;
64543;SDS011;50936;51.660;5.616;2023-05-16T00:54:50;15.15;;;2.70;;
64543;SDS011;50936;51.660;5.616;2023-05-16T00:57:17;14.32;;;2.50;;
64543;SDS011;50936;51.660;5.616;2023-05-16T00:59:45;9.65;;;2.65;;
64543;SDS011;50936;51.660;5.616;2023-05-16T01:02:13;8.73;;;2.65;;
64543;SDS011;50936;51.660;5.616;2023-05-16T01:04:40;12.15;;;2.10;;
64543;SDS011;50936;51.660;5.616;2023-05-16T01:07:09;16.58;;;2.55;;
64543;SDS011;50936;51.660;5.616;2023-05-16T01:09:37;11.77;;;2.70;;
64543;SDS011;50936;51.660;5.616;2023-05-16T01:23:25;10.13;;;2.15;;
64543;SDS011;50936;51.660;5.616;2023-05-16T01:26:23;14.48;;;2.38;;
64543;SDS011;50936;51.660;5.616;2023-05-16T01:28:53;7.97;;;1.65;;
64543;SDS011;50936;51.660;5.616;2023-05-16T01:31:23;12.07;;;2.20;;
64543;SDS011;50936;51.660;5.616;2023-05-16T01:33:50;13.05;;;2.10;;
64543;SDS011;50936;51.660;5.616;2023-05-16T01:38:59;11.15;;;2.15;;
64543;SDS011;50936;51.660;5.616;2023-05-16T01:44:44;12.05;;;1.92;;
64543;SDS011;50936;51.660;5.616;2023-05-16T01:47:21;10.20;;;2.70;;
64543;SDS011;50936;51.660;5.616;2023-05-16T01:52:44;16.08;;;2.50;;
64543;SDS011;50936;51.660;5.616;2023-05-16T01:58:19;10.75;;;2.40;;
64543;SDS011;50936;51.660;5.616;2023-05-16T02:00:52;9.95;;;2.00;;
64543;SDS011;50936;51.660;5.616;2023-05-16T02:03:19;9.35;;;2.88;;
64543;SDS011;50936;51.660;5.616;2023-05-16T02:05:46;11.50;;;2.00;;
64543;SDS011;50936;51.660;5.616;2023-05-16T02:08:13;10.82;;;2.30;;
64543;SDS011;50936;51.660;5.616;2023-05-16T02:10:40;13.77;;;2.08;;
64543;SDS011;50936;51.660;5.616;2023-05-16T02:13:07;7.70;;;2.75;;
64543;SDS011;50936;51.660;5.616;2023-05-16T02:15:34;7.40;;;2.45;;
64543;SDS011;50936;51.660;5.616;2023-05-16T02:18:01;8.95;;;1.92;;
64543;SDS011;50936;51.660;5.616;2023-05-16T02:20:28;10.85;;;2.47;;
64543;SDS011;50936;51.660;5.616;2023-05-16T02:22:54;14.05;;;2.67;;
64543;SDS011;50936;51.660;5.616;2023-05-16T02:25:23;11.50;;;2.30;;
64543;SDS011;50936;51.660;5.616;2023-05-16T02:27:50;9.88;;;2.92;;
64543;SDS011;50936;51.660;5.616;2023-05-16T02:30:17;18.48;;;4.35;;
64543;SDS011;50936;51.660;5.616;2023-05-16T02:32:44;17.23;;;2.42;;
64543;SDS011;50936;51.660;5.616;2023-05-16T02:35:11;9.48;;;1.67;;
64543;SDS011;50936;51.660;5.616;2023-05-16T02:37:38;20.45;;;3.55;;
64543;SDS011;50936;51.660;5.616;2023-05-16T02:40:06;12.38;;;2.55;;
64543;SDS011;50936;51.660;5.616;2023-05-16T02:42:35;12.93;;;2.25;;
64543;SDS011;50936;51.660;5.616;2023-05-16T02:45:02;7.30;;;1.75;;
64543;SDS011;50936;51.660;5.616;2023-05-16T02:47:29;8.10;;;2.08;;
64543;SDS011;50936;51.660;5.616;2023-05-16T02:49:56;11.85;;;1.98;;
64543;SDS011;50936;51.660;5.616;2023-05-16T02:52:23;7.28;;;2.10;;
64543;SDS011;50936;51.660;5.616;2023-05-16T02:54:50;13.70;;;2.65;;
64543;SDS011;50936;51.660;5.616;2023-05-16T02:57:37;10.50;;;1.70;;
64543;SDS011;50936;51.660;5.616;2023-05-16T03:00:04;6.97;;;2.30;;
64543;SDS011;50936;51.660;5.616;2023-05-16T03:02:32;10.70;;;2.50;;
64543;SDS011;50936;51.660;5.616;2023-05-16T03:05:01;7.70;;;2.00;;
64543;SDS011;50936;51.660;5.616;2023-05-16T03:07:29;16.05;;;2.50;;
64543;SDS011;50936;51.660;5.616;2023-05-16T03:09:55;11.48;;;2.58;;
64543;SDS011;50936;51.660;5.616;2023-05-16T03:12:22;13.07;;;2.75;;
64543;SDS011;50936;51.660;5.616;2023-05-16T03:14:49;9.23;;;1.75;;
64543;SDS011;50936;51.660;5.616;2023-05-16T03:17:17;11.93;;;2.65;;
64543;SDS011;50936;51.660;5.616;2023-05-16T03:19:43;11.93;;;2.25;;
64543;SDS011;50936;51.660;5.616;2023-05-16T03:22:11;12.15;;;2.10;;
64543;SDS011;50936;51.660;5.616;2023-05-16T03:24:41;15.27;;;2.50;;
64543;SDS011;50936;51.660;5.616;2023-05-16T03:27:10;10.60;;;2.50;;
64543;SDS011;50936;51.660;5.616;2023-05-16T03:29:37;12.30;;;3.15;;
64543;SDS011;50936;51.660;5.616;2023-05-16T03:32:04;8.30;;;1.60;;
64543;SDS011;50936;51.660;5.616;2023-05-16T03:34:31;13.15;;;2.72;;
64543;SDS011;50936;51.660;5.616;2023-05-16T03:36:58;11.50;;;2.22;;
64543;SDS011;50936;51.660;5.616;2023-05-16T03:39:25;15.82;;;2.60;;
64543;SDS011;50936;51.660;5.616;2023-05-16T03:41:52;11.45;;;2.30;;
64543;SDS011;50936;51.660;5.616;2023-05-16T03:44:21;12.85;;;2.38;;
64543;SDS011;50936;51.660;5.616;2023-05-16T03:46:48;11.88;;;2.35;;
64543;SDS011;50936;51.660;5.616;2023-05-16T03:49:16;10.98;;;2.67;;
64543;SDS011;50936;51.660;5.616;2023-05-16T03:51:43;14.45;;;2.95;;
64543;SDS011;50936;51.660;5.616;2023-05-16T03:54:10;12.80;;;2.47;;
64543;SDS011;50936;51.660;5.616;2023-05-16T03:56:37;10.27;;;2.35;;
64543;SDS011;50936;51.660;5.616;2023-05-16T03:59:04;10.40;;;2.28;;
64543;SDS011;50936;51.660;5.616;2023-05-16T04:01:31;9.35;;;2.20;;
64543;SDS011;50936;51.660;5.616;2023-05-16T04:03:58;11.27;;;2.35;;
64543;SDS011;50936;51.660;5.616;2023-05-16T04:06:25;8.15;;;2.60;;
64543;SDS011;50936;51.660;5.616;2023-05-16T04:08:52;11.07;;;2.45;;
64543;SDS011;50936;51.660;5.616;2023-05-16T04:11:19;10.07;;;2.83;;
64543;SDS011;50936;51.660;5.616;2023-05-16T04:13:47;8.40;;;2.45;;
64543;SDS011;50936;51.660;5.616;2023-05-16T04:16:14;14.75;;;2.67;;
64543;SDS011;50936;51.660;5.616;2023-05-16T04:18:41;8.32;;;2.28;;
64543;SDS011;50936;51.660;5.616;2023-05-16T04:21:08;14.80;;;2.60;;
64543;SDS011;50936;51.660;5.616;2023-05-16T04:23:36;11.07;;;2.00;;
64543;SDS011;50936;51.660;5.616;2023-05-16T04:26:03;9.05;;;2.08;;
64543;SDS011;50936;51.660;5.616;2023-05-16T04:28:30;15.43;;;3.20;;
64543;SDS011;50936;51.660;5.616;2023-05-16T04:30:57;15.63;;;2.45;;
64543;SDS011;50936;51.660;5.616;2023-05-16T04:33:24;10.48;;;2.35;;
64543;SDS011;50936;51.660;5.616;2023-05-16T04:35:52;14.07;;;2.35;;
64543;SDS011;50936;51.660;5.616;2023-05-16T04:38:20;10.68;;;3.25;;
64543;SDS011;50936;51.660;5.616;2023-05-16T04:40:48;10.80;;;3.13;;
64543;SDS011;50936;51.660;5.616;2023-05-16T04:43:18;15.02;;;2.30;;
64543;SDS011;50936;51.660;5.616;2023-05-16T04:45:45;9.07;;;2.30;;
64543;SDS011;50936;51.660;5.616;2023-05-16T04:48:12;12.75;;;2.10;;
64543;SDS011;50936;51.660;5.616;2023-05-16T04:50:40;12.70;;;2.63;;
64543;SDS011;50936;51.660;5.616;2023-05-16T04:53:07;11.25;;;2.50;;
64543;SDS011;50936;51.660;5.616;2023-05-16T04:55:34;12.18;;;4.20;;
64543;SDS011;50936;51.660;5.616;2023-05-16T04:58:01;16.30;;;2.38;;
64543;SDS011;50936;51.660;5.616;2023-05-16T05:00:28;14.20;;;2.80;;
64543;SDS011;50936;51.660;5.616;2023-05-16T05:02:55;9.70;;;1.88;;
64543;SDS011;50936;51.660;5.616;2023-05-16T05:05:22;11.55;;;2.30;;
64543;SDS011;50936;51.660;5.616;2023-05-16T05:07:49;10.07;;;2.67;;
64543;SDS011;50936;51.660;5.616;2023-05-16T05:10:16;13.00;;;2.13;;
64543;SDS011;50936;51.660;5.616;2023-05-16T05:12:43;10.02;;;2.03;;
64543;SDS011;50936;51.660;5.616;2023-05-16T05:15:10;8.02;;;2.20;;
64543;SDS011;50936;51.660;5.616;2023-05-16T05:17:37;11.90;;;3.45;;
64543;SDS011;50936;51.660;5.616;2023-05-16T05:20:04;9.32;;;2.25;;
64543;SDS011;50936;51.660;5.616;2023-05-16T05:22:32;8.30;;;2.20;;
64543;SDS011;50936;51.660;5.616;2023-05-16T05:24:59;9.50;;;2.00;;
64543;SDS011;50936;51.660;5.616;2023-05-16T05:27:26;14.63;;;2.50;;
64543;SDS011;50936;51.660;5.616;2023-05-16T05:29:53;15.63;;;3.03;;
64543;SDS011;50936;51.660;5.616;2023-05-16T05:32:19;11.93;;;2.58;;
64543;SDS011;50936;51.660;5.616;2023-05-16T05:34:46;10.25;;;2.20;;
64543;SDS011;50936;51.660;5.616;2023-05-16T05:37:13;11.48;;;2.28;;
64543;SDS011;50936;51.660;5.616;2023-05-16T05:39:40;12.00;;;2.10;;
64543;SDS011;50936;51.660;5.616;2023-05-16T05:42:07;9.38;;;2.30;;
64543;SDS011;50936;51.660;5.616;2023-05-16T05:44:34;11.45;;;2.38;;
64543;SDS011;50936;51.660;5.616;2023-05-16T05:47:03;8.65;;;2.40;;
64543;SDS011;50936;51.660;5.616;2023-05-16T05:49:32;9.52;;;2.67;;
64543;SDS011;50936;51.660;5.616;2023-05-16T05:51:59;8.30;;;2.40;;
64543;SDS011;50936;51.660;5.616;2023-05-16T05:54:27;9.02;;;2.20;;
64543;SDS011;50936;51.660;5.616;2023-05-16T05:56:56;9.07;;;1.85;;
64543;SDS011;50936;51.660;5.616;2023-05-16T05:59:23;9.60;;;2.15;;
64543;SDS011;50936;51.660;5.616;2023-05-16T06:01:50;8.13;;;2.13;;
64543;SDS011;50936;51.660;5.616;2023-05-16T06:04:19;8.27;;;1.35;;
64543;SDS011;50936;51.660;5.616;2023-05-16T06:06:46;7.75;;;1.73;;
64543;SDS011;50936;51.660;5.616;2023-05-16T06:09:13;12.40;;;2.53;;
64543;SDS011;50936;51.660;5.616;2023-05-16T06:11:40;10.40;;;2.88;;
64543;SDS011;50936;51.660;5.616;2023-05-16T06:14:10;6.68;;;1.75;;
64543;SDS011;50936;51.660;5.616;2023-05-16T06:16:41;11.73;;;1.70;;
64543;SDS011;50936;51.660;5.616;2023-05-16T06:19:08;6.53;;;2.00;;
64543;SDS011;50936;51.660;5.616;2023-05-16T06:21:35;7.47;;;1.58;;
64543;SDS011;50936;51.660;5.616;2023-05-16T06:24:02;6.05;;;2.10;;
64543;SDS011;50936;51.660;5.616;2023-05-16T06:26:29;10.18;;;2.20;;
64543;SDS011;50936;51.660;5.616;2023-05-16T06:28:56;11.90;;;2.33;;
64543;SDS011;50936;51.660;5.616;2023-05-16T06:31:23;7.35;;;1.90;;
64543;SDS011;50936;51.660;5.616;2023-05-16T06:33:50;11.35;;;1.65;;
64543;SDS011;50936;51.660;5.616;2023-05-16T06:36:17;10.15;;;2.15;;
64543;SDS011;50936;51.660;5.616;2023-05-16T06:38:44;11.88;;;2.95;;
64543;SDS011;50936;51.660;5.616;2023-05-16T06:41:10;8.55;;;2.05;;
64543;SDS011;50936;51.660;5.616;2023-05-16T06:43:38;9.02;;;1.75;;
64543;SDS011;50936;51.660;5.616;2023-05-16T06:46:05;7.25;;;1.92;;
64543;SDS011;50936;51.660;5.616;2023-05-16T06:48:32;11.07;;;2.15;;
64543;SDS011;50936;51.660;5.616;2023-05-16T06:50:59;13.05;;;3.15;;
64543;SDS011;50936;51.660;5.616;2023-05-16T06:53:26;19.70;;;2.25;;
64543;SDS011;50936;51.660;5.616;2023-05-16T06:55:54;4.35;;;1.95;;
64543;SDS011;50936;51.660;5.616;2023-05-16T06:58:21;9.70;;;2.17;;
64543;SDS011;50936;51.660;5.616;2023-05-16T07:00:48;6.47;;;1.55;;
64543;SDS011;50936;51.660;5.616;2023-05-16T07:03:16;9.38;;;2.05;;
64543;SDS011;50936;51.660;5.616;2023-05-16T07:05:43;8.15;;;1.75;;
64543;SDS011;50936;51.660;5.616;2023-05-16T07:08:10;8.32;;;1.73;;
64543;SDS011;50936;51.660;5.616;2023-05-16T07:10:40;6.53;;;1.73;;
64543;SDS011;50936;51.660;5.616;2023-05-16T07:13:07;7.47;;;1.67;;
64543;SDS011;50936;51.660;5.616;2023-05-16T07:15:34;5.25;;;2.00;;
64543;SDS011;50936;51.660;5.616;2023-05-16T07:18:00;8.10;;;1.42;;
64543;SDS011;50936;51.660;5.616;2023-05-16T07:20:27;7.07;;;1.38;;
64543;SDS011;50936;51.660;5.616;2023-05-16T07:22:54;8.95;;;1.30;;
64543;SDS011;50936;51.660;5.616;2023-05-16T07:25:24;6.03;;;1.50;;
64543;SDS011;50936;51.660;5.616;2023-05-16T07:27:52;3.80;;;1.38;;
64543;SDS011;50936;51.660;5.616;2023-05-16T07:30:19;5.95;;;1.45;;
64543;SDS011;50936;51.660;5.616;2023-05-16T07:32:46;3.03;;;1.35;;
64543;SDS011;50936;51.660;5.616;2023-05-16T07:35:13;2.95;;;1.10;;
64543;SDS011;50936;51.660;5.616;2023-05-16T07:37:40;8.70;;;1.55;;
64543;SDS011;50936;51.660;5.616;2023-05-16T07:40:11;8.10;;;1.55;;
64543;SDS011;50936;51.660;5.616;2023-05-16T07:42:39;8.55;;;1.35;;
64543;SDS011;50936;51.660;5.616;2023-05-16T07:45:06;7.50;;;1.50;;
64543;SDS011;50936;51.660;5.616;2023-05-16T07:47:34;6.07;;;1.30;;
64543;SDS011;50936;51.660;5.616;2023-05-16T07:50:01;8.82;;;1.67;;
64543;SDS011;50936;51.660;5.616;2023-05-16T07:52:28;6.47;;;2.10;;
64543;SDS011;50936;51.660;5.616;2023-05-16T07:54:55;6.13;;;1.60;;
64543;SDS011;50936;51.660;5.616;2023-05-16T07:57:22;5.05;;;1.50;;
64543;SDS011;50936;51.660;5.616;2023-05-16T07:59:50;6.82;;;1.42;;
64543;SDS011;50936;51.660;5.616;2023-05-16T08:02:20;7.10;;;1.75;;
64543;SDS011;50936;51.660;5.616;2023-05-16T08:04:50;6.18;;;1.70;;
64543;SDS011;50936;51.660;5.616;2023-05-16T08:07:17;8.18;;;1.58;;
64543;SDS011;50936;51.660;5.616;2023-05-16T08:09:44;4.70;;;1.35;;
64543;SDS011;50936;51.660;5.616;2023-05-16T08:12:11;9.43;;;1.65;;
64543;SDS011;50936;51.660;5.616;2023-05-16T08:14:38;5.93;;;1.75;;
64543;SDS011;50936;51.660;5.616;2023-05-16T08:17:04;6.18;;;1.20;;
64543;SDS011;50936;51.660;5.616;2023-05-16T08:19:32;4.85;;;1.10;;
64543;SDS011;50936;51.660;5.616;2023-05-16T08:21:59;5.15;;;1.25;;
64543;SDS011;50936;51.660;5.616;2023-05-16T08:24:27;5.32;;;1.65;;
64543;SDS011;50936;51.660;5.616;2023-05-16T08:26:53;6.78;;;1.60;;
64543;SDS011;50936;51.660;5.616;2023-05-16T08:29:21;3.90;;;1.35;;
64543;SDS011;50936;51.660;5.616;2023-05-16T08:31:48;2.55;;;1.08;;
64543;SDS011;50936;51.660;5.616;2023-05-16T08:34:15;4.28;;;1.25;;
64543;SDS011;50936;51.660;5.616;2023-05-16T08:36:42;5.10;;;1.50;;
64543;SDS011;50936;51.660;5.616;2023-05-16T08:39:09;4.32;;;1.35;;
64543;SDS011;50936;51.660;5.616;2023-05-16T08:41:37;8.73;;;1.77;;
64543;SDS011;50936;51.660;5.616;2023-05-16T08:44:04;4.80;;;1.30;;
64543;SDS011;50936;51.660;5.616;2023-05-16T08:46:32;7.10;;;1.75;;
64543;SDS011;50936;51.660;5.616;2023-05-16T08:49:02;5.43;;;1.42;;
64543;SDS011;50936;51.660;5.616;2023-05-16T08:51:33;1.98;;;1.20;;
64543;SDS011;50936;51.660;5.616;2023-05-16T08:54:03;5.28;;;1.10;;
64543;SDS011;50936;51.660;5.616;2023-05-16T08:56:40;6.70;;;1.48;;
64543;SDS011;50936;51.660;5.616;2023-05-16T08:59:08;5.82;;;1.55;;
64543;SDS011;50936;51.660;5.616;2023-05-16T09:01:37;4.72;;;1.70;;
64543;SDS011;50936;51.660;5.616;2023-05-16T09:04:06;5.32;;;1.52;;
64543;SDS011;50936;51.660;5.616;2023-05-16T09:06:35;2.17;;;0.93;;
64543;SDS011;50936;51.660;5.616;2023-05-16T09:09:02;5.65;;;1.30;;
64543;SDS011;50936;51.660;5.616;2023-05-16T09:11:33;4.47;;;1.40;;
64543;SDS011;50936;51.660;5.616;2023-05-16T09:14:02;4.85;;;1.42;;
64543;SDS011;50936;51.660;5.616;2023-05-16T09:16:30;4.20;;;1.17;;
64543;SDS011;50936;51.660;5.616;2023-05-16T09:18:58;3.60;;;1.23;;
64543;SDS011;50936;51.660;5.616;2023-05-16T09:21:28;4.95;;;1.45;;
64543;SDS011;50936;51.660;5.616;2023-05-16T09:24:04;3.65;;;1.13;;
64543;SDS011;50936;51.660;5.616;2023-05-16T09:29:11;4.45;;;1.13;;
64543;SDS011;50936;51.660;5.616;2023-05-16T09:31:38;6.60;;;1.15;;
64543;SDS011;50936;51.660;5.616;2023-05-16T09:34:06;6.70;;;1.23;;
64543;SDS011;50936;51.660;5.616;2023-05-16T09:36:37;4.68;;;1.30;;
64543;SDS011;50936;51.660;5.616;2023-05-16T09:39:06;3.92;;;1.63;;
64543;SDS011;50936;51.660;5.616;2023-05-16T09:41:34;2.10;;;1.33;;
64543;SDS011;50936;51.660;5.616;2023-05-16T09:44:04;4.20;;;1.30;;
64543;SDS011;50936;51.660;5.616;2023-05-16T09:46:33;6.22;;;1.23;;
64543;SDS011;50936;51.660;5.616;2023-05-16T09:49:02;9.57;;;1.95;;
64543;SDS011;50936;51.660;5.616;2023-05-16T09:51:29;7.50;;;1.42;;
64543;SDS011;50936;51.660;5.616;2023-05-16T09:53:58;7.43;;;1.73;;
64543;SDS011;50936;51.660;5.616;2023-05-16T09:56:26;6.78;;;1.52;;
64543;SDS011;50936;51.660;5.616;2023-05-16T09:58:53;3.55;;;1.13;;
64543;SDS011;50936;51.660;5.616;2023-05-16T10:01:19;5.78;;;1.13;;
64543;SDS011;50936;51.660;5.616;2023-05-16T10:03:49;3.72;;;1.48;;
64543;SDS011;50936;51.660;5.616;2023-05-16T10:06:16;3.35;;;1.08;;
64543;SDS011;50936;51.660;5.616;2023-05-16T10:08:44;5.90;;;1.33;;
64543;SDS011;50936;51.660;5.616;2023-05-16T10:11:13;9.48;;;1.35;;
64543;SDS011;50936;51.660;5.616;2023-05-16T10:13:43;5.13;;;1.50;;
64543;SDS011;50936;51.660;5.616;2023-05-16T10:16:15;6.10;;;1.23;;
64543;SDS011;50936;51.660;5.616;2023-05-16T10:18:50;8.30;;;1.27;;
64543;SDS011;50936;51.660;5.616;2023-05-16T10:21:18;4.68;;;1.15;;
64543;SDS011;50936;51.660;5.616;2023-05-16T10:23:49;5.10;;;1.23;;
64543;SDS011;50936;51.660;5.616;2023-05-16T10:26:19;5.95;;;1.20;;
64543;SDS011;50936;51.660;5.616;2023-05-16T10:28:49;4.18;;;0.98;;
64543;SDS011;50936;51.660;5.616;2023-05-16T10:31:17;9.10;;;1.27;;
64543;SDS011;50936;51.660;5.616;2023-05-16T10:33:44;2.20;;;1.00;;
64543;SDS011;50936;51.660;5.616;2023-05-16T10:36:12;3.95;;;1.10;;
64543;SDS011;50936;51.660;5.616;2023-05-16T10:38:42;3.45;;;1.08;;
64543;SDS011;50936;51.660;5.616;2023-05-16T10:41:10;4.57;;;1.33;;
64543;SDS011;50936;51.660;5.616;2023-05-16T10:43:38;3.78;;;1.00;;
64543;SDS011;50936;51.660;5.616;2023-05-16T10:46:10;11.52;;;1.30;;
64543;SDS011;50936;51.660;5.616;2023-05-16T10:48:38;2.17;;;1.08;;
64543;SDS011;50936;51.660;5.616;2023-05-16T10:53:53;5.00;;;1.33;;
64543;SDS011;50936;51.660;5.616;2023-05-16T10:56:24;3.35;;;1.05;;
64543;SDS011;50936;51.660;5.616;2023-05-16T10:58:54;3.38;;;1.13;;
64543;SDS011;50936;51.660;5.616;2023-05-16T11:01:23;5.35;;;1.30;;
64543;SDS011;50936;51.660;5.616;2023-05-16T11:04:01;3.38;;;1.15;;
64543;SDS011;50936;51.660;5.616;2023-05-16T11:06:33;5.78;;;1.30;;
64543;SDS011;50936;51.660;5.616;2023-05-16T11:09:07;5.38;;;1.17;;
64543;SDS011;50936;51.660;5.616;2023-05-16T11:11:55;5.57;;;1.55;;
64543;SDS011;50936;51.660;5.616;2023-05-16T11:25:04;5.85;;;1.00;;
64543;SDS011;50936;51.660;5.616;2023-05-16T11:27:45;4.15;;;0.80;;
64543;SDS011;50936;51.660;5.616;2023-05-16T11:30:16;4.03;;;1.13;;
64543;SDS011;50936;51.660;5.616;2023-05-16T11:32:47;3.17;;;1.00;;
64543;SDS011;50936;51.660;5.616;2023-05-16T11:35:16;2.30;;;0.98;;
64543;SDS011;50936;51.660;5.616;2023-05-16T11:37:44;7.45;;;3.85;;
64543;SDS011;50936;51.660;5.616;2023-05-16T11:40:13;5.03;;;1.35;;
64543;SDS011;50936;51.660;5.616;2023-05-16T11:42:44;8.00;;;1.83;;
64543;SDS011;50936;51.660;5.616;2023-05-16T11:45:14;6.13;;;1.27;;
64543;SDS011;50936;51.660;5.616;2023-05-16T11:47:47;5.95;;;1.23;;
64543;SDS011;50936;51.660;5.616;2023-05-16T11:50:19;3.40;;;1.10;;
64543;SDS011;50936;51.660;5.616;2023-05-16T11:52:49;2.38;;;1.20;;
64543;SDS011;50936;51.660;5.616;2023-05-16T11:55:21;4.00;;;1.20;;
64543;SDS011;50936;51.660;5.616;2023-05-16T11:58:07;4.95;;;1.20;;
64543;SDS011;50936;51.660;5.616;2023-05-16T12:00:35;7.28;;;1.13;;
64543;SDS011;50936;51.660;5.616;2023-05-16T12:03:03;4.20;;;1.20;;
64543;SDS011;50936;51.660;5.616;2023-05-16T12:05:31;3.13;;;1.00;;
64543;SDS011;50936;51.660;5.616;2023-05-16T12:08:00;2.70;;;1.30;;
64543;SDS011;50936;51.660;5.616;2023-05-16T12:10:30;5.05;;;1.27;;
64543;SDS011;50936;51.660;5.616;2023-05-16T12:12:59;2.00;;;1.05;;
64543;SDS011;50936;51.660;5.616;2023-05-16T12:15:27;4.25;;;1.20;;
64543;SDS011;50936;51.660;5.616;2023-05-16T12:17:55;2.55;;;1.10;;
64543;SDS011;50936;51.660;5.616;2023-05-16T12:20:23;4.15;;;1.33;;
64543;SDS011;50936;51.660;5.616;2023-05-16T12:22:51;4.00;;;1.00;;
64543;SDS011;50936;51.660;5.616;2023-05-16T12:25:25;4.85;;;1.17;;
64543;SDS011;50936;51.660;5.616;2023-05-16T12:28:07;7.65;;;1.48;;
64543;SDS011;50936;51.660;5.616;2023-05-16T12:30:35;4.32;;;1.15;;
64543;SDS011;50936;51.660;5.616;2023-05-16T12:33:12;7.15;;;1.40;;
64543;SDS011;50936;51.660;5.616;2023-05-16T12:35:43;5.65;;;1.15;;
64543;SDS011;50936;51.660;5.616;2023-05-16T12:38:12;6.22;;;1.63;;
64543;SDS011;50936;51.660;5.616;2023-05-16T12:40:41;8.25;;;1.55;;
64543;SDS011;50936;51.660;5.616;2023-05-16T12:43:16;2.05;;;1.05;;
64543;SDS011;50936;51.660;5.616;2023-05-16T12:45:50;4.03;;;1.20;;
64543;SDS011;50936;51.660;5.616;2023-05-16T12:48:23;5.00;;;1.27;;
64543;SDS011;50936;51.660;5.616;2023-05-16T12:51:10;6.82;;;1.35;;
64543;SDS011;50936;51.660;5.616;2023-05-16T12:53:43;3.95;;;1.27;;
64543;SDS011;50936;51.660;5.616;2023-05-16T12:56:27;6.32;;;1.95;;
64543;SDS011;50936;51.660;5.616;2023-05-16T12:58:53;3.65;;;0.93;;
64543;SDS011;50936;51.660;5.616;2023-05-16T13:01:20;3.60;;;1.17;;
64543;SDS011;50936;51.660;5.616;2023-05-16T13:03:47;3.00;;;1.17;;
64543;SDS011;50936;51.660;5.616;2023-05-16T13:06:14;5.13;;;1.48;;
64543;SDS011;50936;51.660;5.616;2023-05-16T13:08:42;5.30;;;1.50;;
64543;SDS011;50936;51.660;5.616;2023-05-16T13:11:09;5.80;;;1.38;;
64543;SDS011;50936;51.660;5.616;2023-05-16T13:13:36;9.38;;;1.05;;
64543;SDS011;50936;51.660;5.616;2023-05-16T13:16:03;4.10;;;1.20;;
64543;SDS011;50936;51.660;5.616;2023-05-16T13:18:31;5.18;;;1.58;;
64543;SDS011;50936;51.660;5.616;2023-05-16T13:20:59;3.67;;;1.27;;
64543;SDS011;50936;51.660;5.616;2023-05-16T13:23:26;5.38;;;1.30;;
64543;SDS011;50936;51.660;5.616;2023-05-16T13:25:53;5.57;;;1.52;;
64543;SDS011;50936;51.660;5.616;2023-05-16T13:28:20;3.85;;;1.17;;
64543;SDS011;50936;51.660;5.616;2023-05-16T13:30:47;5.47;;;1.42;;
64543;SDS011;50936;51.660;5.616;2023-05-16T13:33:14;6.65;;;1.27;;
64543;SDS011;50936;51.660;5.616;2023-05-16T13:35:42;6.65;;;1.20;;
64543;SDS011;50936;51.660;5.616;2023-05-16T13:38:09;9.15;;;1.77;;
64543;SDS011;50936;51.660;5.616;2023-05-16T13:40:36;3.75;;;1.17;;
64543;SDS011;50936;51.660;5.616;2023-05-16T13:43:03;6.03;;;1.30;;
64543;SDS011;50936;51.660;5.616;2023-05-16T13:45:30;6.20;;;1.35;;
64543;SDS011;50936;51.660;5.616;2023-05-16T13:47:57;4.90;;;1.27;;
64543;SDS011;50936;51.660;5.616;2023-05-16T13:50:24;6.30;;;1.52;;
64543;SDS011;50936;51.660;5.616;2023-05-16T13:52:59;7.57;;;1.50;;
64543;SDS011;50936;51.660;5.616;2023-05-16T13:55:26;5.70;;;1.50;;
64543;SDS011;50936;51.660;5.616;2023-05-16T13:57:54;3.83;;;1.30;;
64543;SDS011;50936;51.660;5.616;2023-05-16T14:00:20;2.92;;;0.95;;
64543;SDS011;50936;51.660;5.616;2023-05-16T14:02:50;4.70;;;1.63;;
64543;SDS011;50936;51.660;5.616;2023-05-16T14:05:18;6.32;;;1.27;;
64543;SDS011;50936;51.660;5.616;2023-05-16T14:07:45;2.90;;;1.27;;
64543;SDS011;50936;51.660;5.616;2023-05-16T14:10:12;4.20;;;1.20;;
64543;SDS011;50936;51.660;5.616;2023-05-16T14:12:39;6.72;;;1.40;;
64543;SDS011;50936;51.660;5.616;2023-05-16T14:15:06;5.43;;;1.30;;
64543;SDS011;50936;51.660;5.616;2023-05-16T14:17:34;4.72;;;1.20;;
64543;SDS011;50936;51.660;5.616;2023-05-16T14:20:01;6.88;;;1.63;;
64543;SDS011;50936;51.660;5.616;2023-05-16T14:22:33;3.63;;;1.73;;
64543;SDS011;50936;51.660;5.616;2023-05-16T14:25:01;3.75;;;1.55;;
64543;SDS011;50936;51.660;5.616;2023-05-16T14:27:27;5.22;;;1.65;;
64543;SDS011;50936;51.660;5.616;2023-05-16T14:29:54;5.40;;;2.00;;
64543;SDS011;50936;51.660;5.616;2023-05-16T14:32:21;6.10;;;1.58;;
64543;SDS011;50936;51.660;5.616;2023-05-16T14:34:48;5.82;;;1.48;;
64543;SDS011;50936;51.660;5.616;2023-05-16T14:37:15;5.82;;;1.52;;
64543;SDS011;50936;51.660;5.616;2023-05-16T14:39:44;6.38;;;1.42;;
64543;SDS011;50936;51.660;5.616;2023-05-16T14:42:12;7.20;;;1.70;;
64543;SDS011;50936;51.660;5.616;2023-05-16T14:44:39;8.30;;;2.10;;
64543;SDS011;50936;51.660;5.616;2023-05-16T14:47:06;4.25;;;1.33;;
64543;SDS011;50936;51.660;5.616;2023-05-16T14:49:32;6.03;;;1.63;;
64543;SDS011;50936;51.660;5.616;2023-05-16T14:51:59;7.68;;;1.35;;
64543;SDS011;50936;51.660;5.616;2023-05-16T14:54:26;4.05;;;1.30;;
64543;SDS011;50936;51.660;5.616;2023-05-16T14:56:53;5.00;;;1.85;;
64543;SDS011;50936;51.660;5.616;2023-05-16T14:59:21;3.75;;;1.30;;
64543;SDS011;50936;51.660;5.616;2023-05-16T15:01:47;4.63;;;1.20;;
64543;SDS011;50936;51.660;5.616;2023-05-16T15:04:14;9.07;;;1.55;;
64543;SDS011;50936;51.660;5.616;2023-05-16T15:06:41;3.08;;;1.45;;
64543;SDS011;50936;51.660;5.616;2023-05-16T15:09:08;6.70;;;1.73;;
64543;SDS011;50936;51.660;5.616;2023-05-16T15:11:35;8.27;;;1.80;;
64543;SDS011;50936;51.660;5.616;2023-05-16T15:14:02;3.63;;;1.45;;
64543;SDS011;50936;51.660;5.616;2023-05-16T15:16:29;4.75;;;1.45;;
64543;SDS011;50936;51.660;5.616;2023-05-16T15:18:56;4.65;;;1.17;;
64543;SDS011;50936;51.660;5.616;2023-05-16T15:21:23;5.82;;;1.50;;
64543;SDS011;50936;51.660;5.616;2023-05-16T15:23:50;6.20;;;1.77;;
64543;SDS011;50936;51.660;5.616;2023-05-16T15:26:18;3.75;;;1.23;;
64543;SDS011;50936;51.660;5.616;2023-05-16T15:28:45;7.65;;;1.80;;